Time;durP1;ratioP1;P1;durP2;ratioP2;P2;SDS_P1;SDS_P2;PMS_P1;PMS_P2;Temp;Humidity;BMP_temperature;BMP_pressure;BME280_temperature;BME280_humidity;BME280_pressure;Samples;Min_cycle;Max_cycle;Signal;HPM_P1;HPM_P2
2023/09/12 00:01:46;;;;;;;46.92;16.60;;;;;;;9.14;72.86;100356.34;4932182;29;20134;-74
2023/09/12 00:04:12;;;;;;;31.50;14.90;;;;;;;9.27;72.81;100372.88;4933543;29;20184;-71
2023/09/12 00:06:37;;;;;;;30.45;15.50;;;;;;;9.29;72.65;100375.47;4928788;29;20044;-71
2023/09/12 00:09:08;;;;;;;67.32;19.55;;;;;;;9.13;72.44;100366.72;4931654;29;20054;-72
2023/09/12 00:11:34;;;;;;;49.75;19.80;;;;;;;8.98;72.57;100362.31;4926442;29;20654;-72
2023/09/12 00:14:00;;;;;;;45.53;20.45;;;;;;;9.01;72.94;100370.97;4930694;29;20047;-72
2023/09/12 00:16:26;;;;;;;41.15;17.52;;;;;;;8.97;73.32;100363.16;4916988;29;20039;-72
2023/09/12 00:18:52;;;;;;;42.72;17.02;;;;;;;9.06;73.58;100383.13;4933761;29;20044;-72
2023/09/12 00:21:18;;;;;;;27.27;13.70;;;;;;;8.96;73.43;100377.00;4914598;29;20524;-73
2023/09/12 00:23:43;;;;;;;22.90;13.23;;;;;;;8.96;73.31;100371.81;4923452;29;20046;-71
2023/09/12 00:26:09;;;;;;;36.92;17.63;;;;;;;8.76;73.27;100369.06;4914090;29;20099;-73
2023/09/12 00:28:37;;;;;;;37.47;17.15;;;;;;;8.55;73.31;100334.31;4915304;29;20090;-74
2023/09/12 00:31:03;;;;;;;28.73;13.95;;;;;;;8.74;73.77;100371.66;4929896;29;20055;-72
2023/09/12 00:33:30;;;;;;;48.45;19.10;;;;;;;8.67;73.54;100364.66;4915607;29;20055;-72
2023/09/12 00:35:55;;;;;;;28.75;14.05;;;;;;;8.75;73.90;100368.19;4932962;29;20055;-72
2023/09/12 00:38:21;;;;;;;27.98;13.48;;;;;;;8.81;73.93;100377.75;4933142;29;20048;-72
2023/09/12 00:40:47;;;;;;;30.58;13.63;;;;;;;8.77;73.72;100370.78;4930759;29;20446;-72
2023/09/12 00:43:13;;;;;;;29.42;13.63;;;;;;;8.91;73.95;100391.66;4930064;29;20039;-72
2023/09/12 00:45:41;;;;;;;62.35;15.60;;;;;;;8.78;73.76;100370.81;4895553;29;20114;-72
2023/09/12 00:48:09;;;;;;;63.60;17.98;;;;;;;8.76;73.60;100356.06;4929257;29;20064;-72
2023/09/12 00:50:36;;;;;;;40.25;16.00;;;;;;;8.93;73.70;100390.84;4931153;29;20052;-72
2023/09/12 00:53:03;;;;;;;260.67;22.00;;;;;;;8.84;73.74;100380.38;4922144;29;20054;-73
2023/09/12 00:55:32;;;;;;;108.15;18.92;;;;;;;8.95;73.81;100396.88;4931413;29;20043;-73
2023/09/12 00:57:59;;;;;;;213.52;21.27;;;;;;;8.92;74.13;100401.19;4914352;29;21267;-71
2023/09/12 01:00:25;;;;;;;279.80;22.48;;;;;;;8.95;73.80;100412.44;4926348;29;20062;-72
2023/09/12 01:02:53;;;;;;;97.65;19.30;;;;;;;8.86;73.61;100404.63;4915213;29;20059;-72
2023/09/12 01:05:21;;;;;;;166.98;20.50;;;;;;;8.77;73.96;100389.84;4929259;29;20044;-72
2023/09/12 01:07:48;;;;;;;113.47;18.17;;;;;;;8.88;73.81;100418.47;4930264;29;20098;-72
2023/09/12 01:10:14;;;;;;;126.60;17.98;;;;;;;8.85;74.04;100415.84;4914206;29;20139;-72
2023/09/12 01:12:40;;;;;;;52.03;15.38;;;;;;;8.68;74.06;100395.84;4923787;29;20115;-73
2023/09/12 01:15:13;;;;;;;150.93;18.50;;;;;;;8.67;73.98;100395.81;4931751;29;20477;-71
2023/09/12 01:17:42;;;;;;;39.80;14.40;;;;;;;8.71;74.31;100418.31;4930551;29;20593;-73
2023/09/12 01:20:16;;;;;;;22.35;12.93;;;;;;;8.71;74.02;100418.31;4913565;29;20044;-73
2023/09/12 01:23:00;;;;;;;22.38;12.63;;;;;;;8.66;74.20;100415.69;4929945;29;20047;-71
2023/09/12 01:26:00;;;;;;;16.92;11.60;;;;;;;8.65;73.97;100413.97;4928652;29;20040;-73
2023/09/12 01:28:34;;;;;;;21.13;12.40;;;;;;;8.63;74.12;100419.97;4929501;29;20098;-71
2023/09/12 01:31:04;;;;;;;19.80;11.02;;;;;;;8.61;73.94;100416.53;4912218;29;20570;-71
2023/09/12 01:33:30;;;;;;;19.60;12.13;;;;;;;8.55;74.07;100406.94;4913187;29;20115;-72
2023/09/12 01:35:56;;;;;;;17.88;11.55;;;;;;;8.59;73.99;100419.09;4920796;29;20079;-71
2023/09/12 01:38:22;;;;;;;18.23;11.75;;;;;;;8.51;73.81;100405.16;4930320;29;20043;-70
2023/09/12 01:40:52;;;;;;;18.02;11.77;;;;;;;8.54;73.98;100413.88;4912424;29;20490;-72
2023/09/12 01:43:22;;;;;;;18.40;10.43;;;;;;;8.51;73.77;100418.13;4923375;29;20040;-72
2023/09/12 01:45:52;;;;;;;19.50;11.48;;;;;;;8.40;73.89;100403.31;4927519;29;20052;-70
2023/09/12 01:48:33;;;;;;;24.60;12.55;;;;;;;8.48;73.88;100413.78;4929072;29;20130;-71
2023/09/12 01:51:00;;;;;;;21.50;11.45;;;;;;;8.48;73.67;100413.78;4913226;29;20797;-73
2023/09/12 01:53:27;;;;;;;22.27;12.02;;;;;;;8.46;73.70;100414.63;4930795;29;20402;-71
2023/09/12 01:55:55;;;;;;;25.92;12.73;;;;;;;8.42;73.72;100413.69;4927914;29;20589;-72
2023/09/12 01:58:24;;;;;;;30.10;13.52;;;;;;;8.43;73.67;100413.72;4931039;29;20053;-73
2023/09/12 02:00:50;;;;;;;20.40;12.27;;;;;;;8.42;73.83;100417.19;4928590;29;20031;-72
2023/09/12 02:03:16;;;;;;;22.25;12.10;;;;;;;8.36;74.03;100405.88;4929751;28;20527;-71
2023/09/12 02:05:42;;;;;;;23.40;12.85;;;;;;;8.43;73.52;100426.69;4916810;29;20044;-71
2023/09/12 02:08:08;;;;;;;26.15;12.77;;;;;;;8.40;73.29;100424.06;4932213;29;20110;-71
2023/09/12 02:10:36;;;;;;;25.70;13.73;;;;;;;8.37;73.63;100434.41;4931390;29;20141;-71
2023/09/12 02:13:01;;;;;;;23.45;12.35;;;;;;;8.35;73.46;100435.25;4930505;29;20204;-71
2023/09/12 02:15:27;;;;;;;27.23;14.55;;;;;;;8.26;73.75;100421.34;4930131;29;20111;-71
2023/09/12 02:17:54;;;;;;;30.65;13.88;;;;;;;8.25;73.46;100422.19;4927770;29;20047;-71
2023/09/12 02:20:20;;;;;;;30.52;13.45;;;;;;;8.34;73.74;100429.19;4911864;29;20043;-70
2023/09/12 02:22:46;;;;;;;23.88;12.80;;;;;;;8.28;73.37;100436.88;4927405;29;20046;-73
2023/09/12 02:25:12;;;;;;;25.38;13.68;;;;;;;8.29;73.73;100433.44;4912753;29;20051;-71
2023/09/12 02:27:38;;;;;;;24.45;12.98;;;;;;;8.22;73.68;100429.06;4930520;29;20510;-72
2023/09/12 02:30:04;;;;;;;23.10;12.90;;;;;;;8.23;73.11;100438.59;4927848;29;20418;-71
2023/09/12 02:32:31;;;;;;;29.75;14.32;;;;;;;8.16;73.45;100429.00;4907215;29;20051;-71
2023/09/12 02:34:57;;;;;;;24.05;13.52;;;;;;;8.10;73.52;100424.63;4910268;29;20122;-72
2023/09/12 02:37:23;;;;;;;23.55;12.45;;;;;;;8.14;73.15;100445.41;4912306;29;20040;-73
2023/09/12 02:39:49;;;;;;;20.13;12.40;;;;;;;8.14;73.52;100441.94;4907403;29;20114;-73
2023/09/12 02:42:16;;;;;;;21.38;11.95;;;;;;;8.12;73.37;100438.47;4912362;29;20161;-71
2023/09/12 02:44:41;;;;;;;20.45;12.20;;;;;;;7.87;73.08;100401.91;4929681;29;20471;-72
2023/09/12 02:47:07;;;;;;;20.90;11.98;;;;;;;8.08;72.89;100445.31;4907614;29;20820;-72
2023/09/12 02:49:33;;;;;;;18.77;10.90;;;;;;;8.05;73.16;100434.06;4927298;29;20040;-72
2023/09/12 02:51:59;;;;;;;22.85;11.88;;;;;;;8.04;73.40;100429.72;4930175;29;20160;-72
2023/09/12 02:54:25;;;;;;;22.17;11.65;;;;;;;7.95;73.25;100420.13;4927016;29;20040;-72
2023/09/12 02:56:51;;;;;;;21.65;12.07;;;;;;;8.12;73.10;100447.09;4927815;29;20134;-73
2023/09/12 02:59:17;;;;;;;22.15;12.27;;;;;;;8.08;73.21;100434.09;4928364;29;20038;-72
2023/09/12 03:01:43;;;;;;;22.20;11.90;;;;;;;7.93;73.39;100406.28;4928433;29;20134;-72
2023/09/12 03:04:09;;;;;;;22.25;11.88;;;;;;;8.28;73.24;100449.84;4922365;29;20141;-72
2023/09/12 03:06:35;;;;;;;26.75;12.13;;;;;;;8.13;72.98;100430.69;4907129;29;20502;-72
2023/09/12 03:09:03;;;;;;;27.83;12.82;;;;;;;8.26;73.23;100451.59;4928114;29;20126;-73
2023/09/12 03:11:29;;;;;;;32.40;13.98;;;;;;;8.30;73.08;100458.53;4926660;29;20413;-75
2023/09/12 03:13:55;;;;;;;61.25;14.45;;;;;;;8.33;73.13;100458.56;4912971;29;20134;-73
2023/09/12 03:16:23;;;;;;;398.15;24.80;;;;;;;8.35;72.92;100468.97;4930648;29;20480;-72
2023/09/12 03:18:50;;;;;;;110.05;17.08;;;;;;;8.29;72.88;100456.78;4930065;29;20039;-73
2023/09/12 03:21:15;;;;;;;25.52;14.27;;;;;;;8.23;73.20;100444.63;4930848;29;20047;-73
2023/09/12 03:23:41;;;;;;;37.83;14.57;;;;;;;8.36;72.90;100457.75;4930392;29;20469;-71
2023/09/12 03:26:08;;;;;;;235.00;21.80;;;;;;;8.19;72.59;100442.00;4931340;29;20048;-71
2023/09/12 03:28:35;;;;;;;154.38;21.67;;;;;;;8.26;72.67;100469.75;4930730;29;20513;-71
2023/09/12 03:31:11;;;;;;;138.18;19.27;;;;;;;8.25;72.58;100471.44;4929601;29;20393;-71
2023/09/12 03:33:38;;;;;;;89.85;17.73;;;;;;;8.36;72.86;100470.72;4932358;29;20521;-72
2023/09/12 03:36:06;;;;;;;82.50;20.58;;;;;;;8.37;73.29;100470.72;4909619;29;20043;-72
2023/09/12 03:38:33;;;;;;;95.22;19.42;;;;;;;8.56;73.72;100464.03;4925498;29;20044;-71
2023/09/12 03:40:59;;;;;;;212.48;23.90;;;;;;;8.69;73.53;100452.06;4931850;29;20036;-72
2023/09/12 03:43:25;;;;;;;329.80;24.92;;;;;;;8.84;72.92;100463.41;4930373;29;20236;-71
2023/09/12 03:45:54;;;;;;;268.85;24.17;;;;;;;8.76;73.81;100437.41;4914340;29;20095;-72
2023/09/12 03:48:20;;;;;;;54.08;17.58;;;;;;;8.86;73.52;100439.22;4930965;29;20052;-72
2023/09/12 03:50:46;;;;;;;180.05;20.13;;;;;;;9.06;73.33;100442.84;4931070;29;20414;-71
2023/09/12 03:53:14;;;;;;;225.38;24.00;;;;;;;9.25;73.37;100462.88;4909215;29;20051;-71
2023/09/12 03:55:40;;;;;;;45.28;17.10;;;;;;;9.07;73.89;100410.81;4932436;29;20043;-73
2023/09/12 03:58:06;;;;;;;261.88;24.88;;;;;;;9.00;73.13;100399.53;4911732;29;20048;-73
2023/09/12 04:00:32;;;;;;;41.78;15.32;;;;;;;9.37;73.69;100445.66;4929283;29;20040;-72
2023/09/12 04:02:58;;;;;;;46.35;16.48;;;;;;;9.37;73.77;100417.09;4915468;29;20130;-72
2023/09/12 04:05:25;;;;;;;73.78;16.35;;;;;;;9.71;73.61;100457.09;4930489;29;20039;-70
2023/09/12 04:07:51;;;;;;;98.70;18.48;;;;;;;9.97;73.65;100473.69;4930794;29;20047;-71
2023/09/12 04:10:21;;;;;;;39.25;16.15;;;;;;;10.10;73.47;100484.16;4929268;29;20047;-70
2023/09/12 04:12:47;;;;;;;107.60;19.67;;;;;;;10.08;73.41;100453.78;4926087;29;20481;-71
2023/09/12 04:15:13;;;;;;;120.65;20.20;;;;;;;10.00;72.65;100417.34;4926409;29;20520;-71
2023/09/12 04:17:39;;;;;;;38.17;16.80;;;;;;;10.36;73.25;100454.75;4895803;29;20076;-71
2023/09/12 04:20:06;;;;;;;43.25;19.60;;;;;;;10.66;72.90;100473.91;4911354;29;20040;-71
2023/09/12 04:22:33;;;;;;;39.85;18.35;;;;;;;10.88;72.41;100473.06;4911409;29;20119;-70
2023/09/12 04:24:59;;;;;;;63.42;20.13;;;;;;;10.99;72.40;100456.59;4927102;29;20050;-70
2023/09/12 04:27:25;;;;;;;38.90;18.25;;;;;;;11.38;72.04;100466.09;4911477;29;20429;-70
2023/09/12 04:29:51;;;;;;;47.95;19.40;;;;;;;11.74;72.09;100474.69;4905926;29;20152;-69
2023/09/12 04:32:23;;;;;;;37.90;17.00;;;;;;;11.94;71.67;100456.38;4913063;29;20134;-70
2023/09/12 04:34:49;;;;;;;39.95;17.83;;;;;;;12.12;70.79;100452.88;4887977;29;20085;-71
2023/09/12 04:37:16;;;;;;;32.53;16.33;;;;;;;12.40;70.23;100477.94;4926728;29;20051;-73
2023/09/12 04:39:42;;;;;;;35.72;17.20;;;;;;;12.37;70.02;100450.09;4910698;29;20585;-69
2023/09/12 04:42:08;;;;;;;35.50;17.27;;;;;;;12.71;69.66;100488.19;4912886;29;20287;-70
2023/09/12 04:44:39;;;;;;;38.30;17.42;;;;;;;13.03;69.05;100497.53;4927321;29;20044;-74
2023/09/12 04:47:05;;;;;;;23.33;13.98;;;;;;;13.20;68.62;100479.97;4905872;29;20044;-70
2023/09/12 04:49:31;;;;;;;25.30;13.68;;;;;;;13.06;68.17;100445.28;4910358;29;20040;-74
2023/09/12 04:51:57;;;;;;;25.90;14.82;;;;;;;13.25;67.55;100452.06;4912602;29;20062;-69
2023/09/12 04:54:23;;;;;;;33.00;15.30;;;;;;;13.68;66.63;100489.13;4910883;29;20522;-70
2023/09/12 04:56:50;;;;;;;31.42;15.98;;;;;;;13.70;66.59;100459.44;4926426;29;20499;-68
2023/09/12 04:59:16;;;;;;;38.75;18.15;;;;;;;14.19;65.88;100487.69;4890285;29;20079;-71
2023/09/12 05:01:42;;;;;;;53.38;21.08;;;;;;;14.11;64.84;100449.38;4908257;29;20103;-69
2023/09/12 05:04:08;;;;;;;99.15;24.35;;;;;;;14.01;62.79;100492.25;4926315;29;20549;-70
2023/09/12 05:06:34;;;;;;;105.80;26.52;;;;;;;13.78;63.02;100497.75;4909764;29;20044;-70
2023/09/12 05:09:00;;;;;;;71.43;26.17;;;;;;;13.73;63.53;100496.91;4925286;29;20040;-72
2023/09/12 05:11:26;;;;;;;71.20;23.45;;;;;;;13.73;62.85;100494.31;4923300;29;20071;-70
2023/09/12 05:13:52;;;;;;;67.47;23.55;;;;;;;13.72;63.15;100493.44;4889150;29;20090;-71
2023/09/12 05:16:18;;;;;;;48.63;21.17;;;;;;;13.75;63.01;100464.66;4908927;29;20043;-71
2023/09/12 05:18:44;;;;;;;42.97;21.95;;;;;;;14.59;63.81;100477.50;4894527;29;20088;-70
2023/09/12 05:21:10;;;;;;;40.95;21.67;;;;;;;15.40;61.49;100483.22;4889223;29;20046;-70
2023/09/12 05:23:36;;;;;;;35.53;19.55;;;;;;;16.40;62.58;100470.75;4911652;29;20537;-70
2023/09/12 05:26:02;;;;;;;34.72;19.55;;;;;;;17.96;61.44;100475.63;4925758;29;20573;-71
2023/09/12 05:28:28;;;;;;;32.85;19.63;;;;;;;19.42;59.35;100427.06;4909869;29;20040;-71
2023/09/12 05:30:54;;;;;;;27.08;17.40;;;;;;;21.34;56.23;100466.31;4925058;29;20047;-72
2023/09/12 05:33:20;;;;;;;28.35;17.00;;;;;;;22.83;53.96;100454.25;4910248;29;20048;-70
2023/09/12 05:35:47;;;;;;;27.95;17.73;;;;;;;24.21;50.69;100432.91;4904261;29;20059;-71
2023/09/12 05:38:13;;;;;;;25.73;17.10;;;;;;;24.93;44.97;100451.88;4910006;29;20040;-70
2023/09/12 05:40:39;;;;;;;24.77;16.58;;;;;;;25.70;45.67;100437.56;4910403;29;20628;-70
2023/09/12 05:43:05;;;;;;;29.42;16.45;;;;;;;27.03;42.90;100442.34;4903473;29;20099;-70
2023/09/12 05:45:32;;;;;;;22.77;15.70;;;;;;;27.86;39.37;100455.41;4926276;29;20126;-70
2023/09/12 05:47:59;;;;;;;23.17;16.02;;;;;;;28.83;37.29;100443.00;4891379;29;20048;-70
2023/09/12 05:50:25;;;;;;;21.77;15.65;;;;;;;29.78;35.55;100461.69;4925635;29;20040;-73
2023/09/12 05:52:51;;;;;;;24.58;15.88;;;;;;;30.57;33.61;100445.47;4908885;29;20075;-72
2023/09/12 05:55:18;;;;;;;25.10;16.88;;;;;;;31.42;32.38;100453.59;4925207;29;20098;-73
2023/09/12 05:57:44;;;;;;;28.35;18.10;;;;;;;31.85;30.81;100455.22;4888855;29;20084;-74
2023/09/12 06:00:11;;;;;;;22.90;15.63;;;;;;;32.36;30.23;100457.91;4912382;29;20078;-71
2023/09/12 06:02:42;;;;;;;25.27;16.25;;;;;;;32.61;28.54;100452.97;4924977;29;20471;-71
2023/09/12 06:05:08;;;;;;;18.75;14.90;;;;;;;33.28;27.65;100455.75;4911840;29;20149;-69
2023/09/12 06:07:38;;;;;;;21.15;16.17;;;;;;;34.08;26.87;100444.53;4924695;29;20044;-70
2023/09/12 06:10:05;;;;;;;20.15;16.73;;;;;;;34.87;26.07;100435.81;4909671;29;20036;-74
2023/09/12 06:12:32;;;;;;;23.40;16.75;;;;;;;35.68;24.61;100446.50;4909701;29;20059;-70
2023/09/12 06:14:59;;;;;;;20.20;16.55;;;;;;;36.09;23.75;100426.84;4910052;29;20111;-70
2023/09/12 06:17:25;;;;;;;23.50;16.27;;;;;;;36.76;23.31;100447.59;4919179;29;20052;-69
2023/09/12 06:19:51;;;;;;;18.40;16.08;;;;;;;37.00;22.20;100435.94;4909490;29;20043;-73
2023/09/12 06:22:17;;;;;;;19.58;17.67;;;;;;;37.62;21.81;100439.88;4910706;29;20047;-72
2023/09/12 06:24:44;;;;;;;20.88;16.63;;;;;;;38.07;20.87;100425.75;4910204;29;20039;-72
2023/09/12 06:27:12;;;;;;;20.48;17.33;;;;;;;38.62;20.25;100448.31;4911361;29;20036;-72
2023/09/12 06:29:38;;;;;;;18.98;16.77;;;;;;;39.26;19.35;100443.50;4902233;29;20044;-74
2023/09/12 06:32:04;;;;;;;18.83;16.83;;;;;;;39.71;19.07;100422.56;4911989;29;20156;-72
2023/09/12 06:34:30;;;;;;;18.95;16.75;;;;;;;40.15;18.41;100437.09;4921897;29;20044;-69
2023/09/12 06:36:56;;;;;;;19.83;16.75;;;;;;;40.79;17.91;100443.63;4910096;29;20054;-70
2023/09/12 06:39:24;;;;;;;20.58;17.05;;;;;;;41.12;17.52;100444.91;4907570;29;20044;-74
2023/09/12 06:41:50;;;;;;;20.60;16.80;;;;;;;41.14;17.33;100442.00;4925328;29;20068;-72
2023/09/12 06:44:16;;;;;;;19.38;17.27;;;;;;;41.25;17.12;100433.25;4924019;29;20068;-72
2023/09/12 06:46:41;;;;;;;18.77;16.88;;;;;;;41.31;16.53;100443.38;4925223;29;20083;-71
2023/09/12 06:49:07;;;;;;;19.63;16.50;;;;;;;41.70;16.45;100446.53;4928081;29;20491;-72
2023/09/12 06:51:33;;;;;;;19.08;16.83;;;;;;;42.35;15.69;100447.97;4914036;29;20062;-71
2023/09/12 06:53:59;;;;;;;20.38;16.88;;;;;;;42.99;15.45;100438.34;4913811;29;20048;-71
2023/09/12 06:56:25;;;;;;;18.95;16.63;;;;;;;43.41;15.14;100449.00;4896370;29;20521;-72
2023/09/12 06:58:53;;;;;;;18.25;16.35;;;;;;;43.70;14.40;100435.84;4926578;29;20044;-71
2023/09/12 07:01:19;;;;;;;20.50;15.75;;;;;;;44.23;14.18;100442.94;4912219;29;21375;-71
2023/09/12 07:03:44;;;;;;;19.38;16.05;;;;;;;44.70;13.67;100441.78;4911901;29;20055;-72
2023/09/12 07:06:10;;;;;;;23.92;14.30;;;;;;;44.91;13.52;100450.69;4910595;29;20162;-72
2023/09/12 07:08:36;;;;;;;18.05;14.95;;;;;;;45.61;12.66;100449.50;4913609;29;20056;-73
2023/09/12 07:11:05;;;;;;;20.20;15.68;;;;;;;45.68;12.85;100435.69;4927526;29;20528;-70
2023/09/12 07:13:33;;;;;;;17.05;15.30;;;;;;;45.53;12.28;100417.69;4922296;29;20052;-72
2023/09/12 07:15:59;;;;;;;18.65;15.85;;;;;;;44.78;12.53;100457.09;4926868;29;20453;-70
2023/09/12 07:18:25;;;;;;;16.58;14.73;;;;;;;44.35;12.79;100436.78;4903683;29;20931;-71
2023/09/12 07:21:01;;;;;;;18.42;16.45;;;;;;;44.66;12.65;100444.13;4913595;29;20071;-71
2023/09/12 07:23:28;;;;;;;19.00;15.88;;;;;;;44.47;12.89;100447.88;4914139;29;20502;-70
2023/09/12 07:25:57;;;;;;;18.00;16.15;;;;;;;44.57;12.75;100450.94;4906793;29;20055;-73
2023/09/12 07:28:24;;;;;;;18.75;16.85;;;;;;;44.68;12.81;100455.72;4906307;29;20447;-75
2023/09/12 07:30:50;;;;;;;18.20;16.33;;;;;;;44.89;13.07;100450.06;4910822;29;20036;-68
2023/09/12 07:33:16;;;;;;;19.40;16.08;;;;;;;45.56;12.13;100443.84;4925286;29;20048;-75
2023/09/12 07:35:42;;;;;;;18.20;16.30;;;;;;;45.35;11.83;100439.69;4925206;29;20040;-77
2023/09/12 07:38:08;;;;;;;17.90;16.08;;;;;;;45.61;11.62;100449.50;4927183;29;21438;-76
2023/09/12 07:40:33;;;;;;;19.48;15.82;;;;;;;44.88;12.26;100438.25;4911415;29;20491;-77
2023/09/12 07:42:59;;;;;;;18.15;16.25;;;;;;;45.62;11.52;100420.09;4911937;29;20110;-76
2023/09/12 07:45:25;;;;;;;18.38;16.45;;;;;;;46.47;11.54;100438.38;4911199;29;20582;-74
2023/09/12 07:47:51;;;;;;;19.10;16.95;;;;;;;47.01;11.26;100437.44;4910843;29;20138;-77
2023/09/12 07:50:17;;;;;;;19.42;17.02;;;;;;;47.31;11.11;100408.94;4911448;29;20087;-81
2023/09/12 07:52:43;;;;;;;20.85;18.80;;;;;;;47.01;11.43;100431.94;4906831;29;20078;-80
2023/09/12 07:55:09;;;;;;;19.58;16.33;;;;;;;46.87;10.41;100422.28;4910202;29;21079;-80
2023/09/12 07:57:36;;;;;;;17.02;15.25;;;;;;;47.26;10.80;100435.50;4926866;29;20048;-79
2023/09/12 08:00:12;;;;;;;20.30;17.83;;;;;;;47.88;10.88;100426.56;4911587;29;20107;-80
2023/09/12 08:02:38;;;;;;;19.60;17.15;;;;;;;48.66;10.34;100408.59;4912158;29;20055;-80
2023/09/12 08:05:05;;;;;;;17.42;15.73;;;;;;;49.39;9.73;100413.19;4909380;29;20071;-80
2023/09/12 08:07:31;;;;;;;17.73;15.98;;;;;;;49.77;9.43;100421.63;4890913;29;20107;-79
2023/09/12 08:09:58;;;;;;;17.25;15.48;;;;;;;49.14;9.88;100429.16;4912473;29;20410;-80
2023/09/12 08:12:26;;;;;;;17.50;15.23;;;;;;;48.18;9.84;100402.56;4917673;29;20055;-79
2023/09/12 08:14:54;;;;;;;17.95;15.90;;;;;;;48.51;9.73;100429.34;4893850;29;20067;-80
2023/09/12 08:17:21;;;;;;;19.13;14.00;;;;;;;48.89;9.68;100426.03;4915333;29;20043;-82
2023/09/12 08:19:46;;;;;;;14.73;13.02;;;;;;;48.55;9.69;100413.13;4910452;29;20165;-80
2023/09/12 08:22:12;;;;;;;16.23;14.00;;;;;;;48.16;9.31;100416.63;4931758;29;20104;-81
2023/09/12 08:24:41;;;;;;;16.52;13.15;;;;;;;47.80;10.04;100414.03;4931540;29;20143;-81
2023/09/12 08:27:09;;;;;;;19.98;14.80;;;;;;;47.52;10.35;100420.34;4928215;29;20040;-81
2023/09/12 08:29:35;;;;;;;14.82;13.43;;;;;;;48.15;9.89;100401.16;4925154;29;20040;-82
2023/09/12 08:32:01;;;;;;;13.93;12.70;;;;;;;48.55;9.76;100415.91;4930545;29;20051;-81
2023/09/12 08:34:27;;;;;;;14.57;12.02;;;;;;;48.90;9.48;100417.50;4927425;29;20044;-79
2023/09/12 08:36:54;;;;;;;14.90;13.02;;;;;;;49.53;9.09;100416.41;4930129;29;20043;-80
2023/09/12 08:39:27;;;;;;;14.68;13.18;;;;;;;49.03;9.34;100413.53;4928611;29;20047;-81
2023/09/12 08:41:54;;;;;;;14.20;12.77;;;;;;;48.25;9.41;100415.09;4919887;29;20048;-79
2023/09/12 08:44:21;;;;;;;13.98;12.57;;;;;;;47.97;9.69;100409.66;4918673;29;20047;-80
2023/09/12 08:46:47;;;;;;;12.02;10.93;;;;;;;47.41;9.93;100389.03;4927601;29;20035;-81
2023/09/12 08:49:15;;;;;;;12.82;11.63;;;;;;;46.32;10.49;100399.47;4930180;29;20043;-80
2023/09/12 08:51:41;;;;;;;13.35;12.25;;;;;;;47.54;10.00;100411.84;4930358;29;20090;-80
2023/09/12 08:54:09;;;;;;;13.57;12.20;;;;;;;47.64;9.48;100392.78;4927726;29;20044;-79
2023/09/12 08:56:37;;;;;;;13.07;11.77;;;;;;;47.97;9.39;100387.63;4929261;29;20534;-79
2023/09/12 08:59:04;;;;;;;11.48;10.45;;;;;;;48.68;9.60;100390.72;4928311;29;20058;-80
2023/09/12 09:01:31;;;;;;;11.38;10.35;;;;;;;49.04;9.02;100395.91;4931274;29;20127;-81
2023/09/12 09:03:58;;;;;;;11.38;10.35;;;;;;;49.07;8.97;100373.31;4909169;29;20040;-79
2023/09/12 09:06:25;;;;;;;10.90;10.00;;;;;;;48.42;9.08;100389.50;4926341;29;20035;-80
2023/09/12 09:08:51;;;;;;;11.10;9.90;;;;;;;47.68;9.24;100393.13;4911583;29;20142;-80
2023/09/12 09:11:17;;;;;;;10.55;9.65;;;;;;;46.95;9.86;100377.84;4925150;29;20035;-79
2023/09/12 09:13:47;;;;;;;9.55;8.65;;;;;;;44.87;10.01;100375.38;4927752;29;20062;-78
2023/09/12 09:16:17;;;;;;;;;;;;;;;43.16;11.13;100381.25;4911861;29;20047;-79
2023/09/12 09:18:57;;;;;;;7.38;6.68;;;;;;;42.04;12.52;100387.41;4909874;29;20290;-78
2023/09/12 09:21:26;;;;;;;8.38;7.57;;;;;;;41.22;12.74;100365.44;4892126;29;20040;-82
2023/09/12 09:23:56;;;;;;;6.85;6.22;;;;;;;42.50;12.34;100366.63;4927093;29;20039;-80
2023/09/12 09:26:23;;;;;;;8.35;6.78;;;;;;;43.59;11.70;100370.78;4928807;29;20107;-79
2023/09/12 09:29:10;;;;;;;7.40;6.70;;;;;;;44.88;10.86;100377.03;4928976;29;20051;-79
2023/09/12 09:31:41;;;;;;;6.40;5.88;;;;;;;44.67;10.88;100365.41;4926943;29;20056;-80
2023/09/12 09:34:15;;;;;;;7.32;5.85;;;;;;;44.04;10.84;100389.13;4928555;29;20036;-79
2023/09/12 09:36:42;;;;;;;6.90;6.30;;;;;;;43.75;11.43;100362.09;4919870;29;20054;-81
2023/09/12 09:39:09;;;;;;;8.63;6.43;;;;;;;43.90;11.33;100375.50;4926620;29;20141;-82
2023/09/12 09:41:36;;;;;;;6.80;6.20;;;;;;;44.41;11.39;100341.81;4928651;29;20509;-79
2023/09/12 09:44:04;;;;;;;6.80;6.15;;;;;;;44.35;11.26;100379.19;4926013;29;21613;-80
2023/09/12 09:46:30;;;;;;;6.80;6.10;;;;;;;44.65;11.19;100349.19;4926680;29;20043;-82
2023/09/12 09:48:59;;;;;;;9.95;6.53;;;;;;;45.12;10.73;100345.13;4928423;29;20047;-79
2023/09/12 09:51:26;;;;;;;6.53;5.90;;;;;;;45.58;10.71;100373.06;4928378;29;20036;-79
2023/09/12 09:53:57;;;;;;;8.45;5.85;;;;;;;45.32;9.77;100363.28;4925717;29;20044;-80
2023/09/12 09:56:24;;;;;;;6.22;5.63;;;;;;;44.56;10.58;100331.34;4927809;29;20044;-79
2023/09/12 09:58:57;;;;;;;13.25;11.63;;;;;;;44.44;11.36;100382.50;4928951;29;20104;-81
2023/09/12 10:01:31;;;;;;;9.05;6.78;;;;;;;43.79;11.53;100371.56;4927066;29;20086;-78
2023/09/12 10:04:01;;;;;;;8.98;8.15;;;;;;;44.83;10.92;100380.44;4928924;29;20043;-79
2023/09/12 10:06:28;;;;;;;8.52;5.85;;;;;;;45.16;10.28;100365.53;4928733;29;20417;-78
2023/09/12 10:08:57;;;;;;;7.72;6.75;;;;;;;43.62;11.13;100364.88;4911065;29;20047;-79
2023/09/12 10:11:29;;;;;;;10.57;9.27;;;;;;;43.22;11.94;100365.06;4927811;29;20497;-79
2023/09/12 10:13:57;;;;;;;6.10;5.40;;;;;;;41.84;11.39;100355.38;4928510;29;20047;-80
2023/09/12 10:16:27;;;;;;;6.15;5.00;;;;;;;39.75;13.21;100353.09;4927331;29;20050;-77
2023/09/12 10:19:16;;;;;;;5.63;5.07;;;;;;;38.62;13.74;100374.94;4927253;29;20057;-80
2023/09/12 10:21:48;;;;;;;9.60;6.00;;;;;;;37.30;14.66;100386.53;4930305;29;20115;-80
2023/09/12 10:24:15;;;;;;;8.27;6.13;;;;;;;36.13;16.11;100345.16;4921108;29;20279;-81
2023/09/12 10:26:45;;;;;;;8.30;6.28;;;;;;;35.47;16.67;100360.34;4929710;29;20051;-81
2023/09/12 10:29:15;;;;;;;7.07;5.60;;;;;;;34.43;17.23;100388.03;4925579;29;20044;-80
2023/09/12 10:31:41;;;;;;;6.53;5.30;;;;;;;33.23;17.90;100392.50;4922093;29;20040;-79
2023/09/12 10:34:13;;;;;;;7.82;5.50;;;;;;;31.95;19.13;100389.81;4931841;29;20102;-79
2023/09/12 10:36:43;;;;;;;7.25;5.30;;;;;;;30.28;20.89;100325.28;4898739;29;20565;-80
2023/09/12 10:39:12;;;;;;;10.48;5.22;;;;;;;30.50;21.20;100390.59;4931937;29;20055;-80
2023/09/12 10:41:39;;;;;;;5.82;5.32;;;;;;;30.01;21.89;100360.66;4932429;29;20043;-78
2023/09/12 10:44:17;;;;;;;7.10;5.70;;;;;;;28.98;22.30;100367.81;4915003;29;20054;-79
2023/09/12 10:46:46;;;;;;;6.53;5.00;;;;;;;28.54;23.44;100387.16;4930897;29;20058;-82
2023/09/12 10:49:14;;;;;;;9.60;4.97;;;;;;;27.48;23.97;100337.78;4905677;29;20075;-83
2023/09/12 10:51:45;;;;;;;7.18;5.55;;;;;;;26.74;23.85;100302.81;4897419;29;20043;-81
2023/09/12 10:54:15;;;;;;;;;;;;;;;27.04;25.04;100393.31;4930053;29;20071;-80
2023/09/12 10:56:50;;;;;;;9.05;6.05;;;;;;;26.67;25.03;100401.13;4914743;29;19918;-81
2023/09/12 10:59:17;;;;;;;8.63;5.47;;;;;;;25.85;25.62;100310.47;4901300;29;20047;-82
2023/09/12 11:01:47;;;;;;;6.15;4.63;;;;;;;26.15;26.46;100371.63;4900146;29;20062;-80
2023/09/12 11:04:19;;;;;;;5.70;4.90;;;;;;;25.82;26.37;100402.16;4917746;29;20059;-81
2023/09/12 11:06:50;;;;;;;5.95;4.35;;;;;;;25.52;27.26;100400.44;4917545;29;20048;-79
2023/09/12 11:09:24;;;;;;;6.53;5.13;;;;;;;24.89;27.25;100297.81;4923260;29;20067;-79
2023/09/12 11:12:09;;;;;;;6.93;5.10;;;;;;;24.92;27.55;100353.53;4918708;29;20044;-81
2023/09/12 11:14:37;;;;;;;7.22;5.18;;;;;;;24.92;27.91;100417.38;4928094;29;20039;-82
2023/09/12 11:17:07;;;;;;;7.93;5.40;;;;;;;24.56;27.88;100406.13;4934359;29;20524;-81